Terminal Aerodrome Forecast
Issued by NWS

Home | Current Version | Previous Version | Graphics & Text | Print | Product List | Glossary On
Versions: 1 2 3 4 5 6 7 8 9 10 11 12 13 14 15 16 17 18 19 20 21
000
FTUS42 KMHX 282300
TAFPGV
TAF
KPGV 282321Z 2900/2924 VRB05KT 6SM BR SCT009 BKN020
      TEMPO 2900/2902 4SM -DZ
     FM290600 04003KT 4SM -RA BR OVC005
     FM291300 05005KT 3SM -RA BR OVC004
      AMD LTD TO CLD VIS AND WIND=

USA.gov is the U.S. government's official web portal to all federal, state and local government web resources and services.